createdAt,value
2022-10-31T00:01:16.739Z,11.70
2022-10-31T00:03:43.522Z,11.70
2022-10-31T00:06:10.517Z,11.60
2022-10-31T00:08:37.257Z,11.60
2022-10-31T00:11:04.140Z,11.60
2022-10-31T00:13:30.825Z,11.60
2022-10-31T00:15:57.574Z,11.50
2022-10-31T00:18:24.330Z,11.40
2022-10-31T00:21:00.430Z,11.40
2022-10-31T00:23:27.301Z,11.40
2022-10-31T00:25:54.034Z,11.50
2022-10-31T00:28:20.757Z,11.50
2022-10-31T00:30:47.474Z,11.50
2022-10-31T00:33:14.228Z,11.50
2022-10-31T00:35:40.970Z,11.50
2022-10-31T00:38:07.688Z,11.50
2022-10-31T00:40:34.420Z,11.50
2022-10-31T00:43:01.551Z,11.50
2022-10-31T00:45:28.679Z,11.50
2022-10-31T00:47:55.395Z,11.50
2022-10-31T00:50:22.186Z,11.50
2022-10-31T00:52:48.871Z,11.50
2022-10-31T00:55:15.625Z,11.50
2022-10-31T00:57:42.373Z,11.50
2022-10-31T01:00:10.107Z,11.40
2022-10-31T01:02:37.048Z,11.40
2022-10-31T01:05:04.031Z,11.40
2022-10-31T01:07:30.795Z,11.40
2022-10-31T01:09:57.539Z,11.30
2022-10-31T01:12:24.272Z,11.20
2022-10-31T01:14:50.991Z,11.20
2022-10-31T01:17:17.712Z,11.20
2022-10-31T01:19:45.664Z,11.20
2022-10-31T01:22:12.418Z,11.20
2022-10-31T01:24:39.169Z,11.20
2022-10-31T01:27:05.878Z,11.20
2022-10-31T01:29:32.605Z,11.10
2022-10-31T01:31:59.287Z,11.10
2022-10-31T01:34:26.038Z,11.10
2022-10-31T01:36:53.020Z,11.00
2022-10-31T01:39:20.462Z,11.00
2022-10-31T01:41:52.896Z,11.00
2022-10-31T01:44:19.595Z,10.90
2022-10-31T01:46:52.874Z,10.90
2022-10-31T01:49:44.026Z,11.00
2022-10-31T01:52:36.437Z,11.00
2022-10-31T01:55:07.893Z,11.10
2022-10-31T01:57:36.437Z,11.10
2022-10-31T02:00:07.646Z,11.20
2022-10-31T02:02:34.484Z,11.30
2022-10-31T02:05:05.489Z,11.30
2022-10-31T02:07:48.593Z,11.30
2022-10-31T02:10:16.248Z,11.40
2022-10-31T02:12:43.817Z,11.30
2022-10-31T02:15:10.861Z,11.30
2022-10-31T02:17:37.747Z,11.20
2022-10-31T02:20:23.928Z,11.20
2022-10-31T02:23:21.835Z,11.20
2022-10-31T02:26:13.286Z,11.20
2022-10-31T02:29:01.532Z,11.20
2022-10-31T02:31:55.460Z,11.00
2022-10-31T02:34:31.916Z,10.90
2022-10-31T02:37:06.291Z,10.90
2022-10-31T02:39:44.970Z,10.90
2022-10-31T02:42:21.262Z,10.90
2022-10-31T02:45:01.432Z,10.80
2022-10-31T02:47:31.074Z,10.80
2022-10-31T02:50:00.371Z,10.80
2022-10-31T02:52:29.568Z,10.80
2022-10-31T02:54:56.455Z,10.80
2022-10-31T02:57:34.673Z,10.80
2022-10-31T03:00:09.333Z,10.80
2022-10-31T03:02:50.563Z,10.90
2022-10-31T03:05:38.521Z,10.80
2022-10-31T03:08:14.136Z,10.80
2022-10-31T03:10:57.825Z,10.70
2022-10-31T03:13:27.535Z,10.70
2022-10-31T03:16:16.954Z,10.80
2022-10-31T03:18:49.840Z,10.70
2022-10-31T03:21:35.048Z,10.70
2022-10-31T03:24:03.077Z,10.70
2022-10-31T03:26:30.743Z,10.70
2022-10-31T03:29:08.872Z,10.60
2022-10-31T03:31:40.658Z,10.50
2022-10-31T03:34:09.735Z,10.40
2022-10-31T03:36:40.649Z,10.40
2022-10-31T03:39:12.236Z,10.40
2022-10-31T03:41:44.265Z,10.30
2022-10-31T03:44:21.777Z,10.30
2022-10-31T03:46:48.531Z,10.20
2022-10-31T03:49:16.353Z,10.20
2022-10-31T03:51:57.562Z,10.20
2022-10-31T03:54:33.500Z,10.10
2022-10-31T03:57:17.929Z,10.10
2022-10-31T03:59:49.292Z,10.10
2022-10-31T04:02:19.637Z,10.10
2022-10-31T04:04:49.598Z,10.10
2022-10-31T04:07:18.621Z,10.20
2022-10-31T04:09:47.446Z,10.10
2022-10-31T04:12:16.953Z,10.10
2022-10-31T04:14:47.479Z,10.20
2022-10-31T04:17:17.395Z,10.20
2022-10-31T04:19:44.255Z,10.10
2022-10-31T04:22:11.389Z,10.10
2022-10-31T04:24:41.527Z,10.10
2022-10-31T04:27:08.407Z,10.00
2022-10-31T04:29:35.121Z,10.10
2022-10-31T04:32:01.830Z,10.10
2022-10-31T04:34:28.524Z,10.00
2022-10-31T04:36:55.221Z,10.00
2022-10-31T04:39:25.757Z,9.90
2022-10-31T04:41:53.611Z,9.80
2022-10-31T04:44:20.359Z,9.80
2022-10-31T04:46:47.169Z,9.70
2022-10-31T04:49:14.038Z,9.60
2022-10-31T04:51:40.803Z,9.60
2022-10-31T04:54:07.748Z,9.60
2022-10-31T04:56:34.451Z,9.70
2022-10-31T04:59:01.274Z,9.70
2022-10-31T05:01:29.024Z,9.70
2022-10-31T05:03:55.934Z,9.70
2022-10-31T05:06:22.725Z,9.80
2022-10-31T05:08:49.485Z,9.80
2022-10-31T05:11:16.207Z,9.80
2022-10-31T05:13:42.987Z,9.90
2022-10-31T05:16:09.843Z,9.90
2022-10-31T05:18:36.655Z,9.90
2022-10-31T05:21:03.496Z,9.90
2022-10-31T05:23:30.274Z,10.00
2022-10-31T05:25:56.959Z,10.00
2022-10-31T05:28:23.665Z,10.00
2022-10-31T05:30:50.700Z,10.00
2022-10-31T05:33:17.405Z,10.00
2022-10-31T05:35:44.145Z,9.90
2022-10-31T05:38:10.823Z,9.90
2022-10-31T05:40:37.528Z,9.80
2022-10-31T05:43:04.428Z,9.80
2022-10-31T05:45:31.114Z,9.90
2022-10-31T05:48:00.125Z,9.90
2022-10-31T05:50:29.083Z,9.80
2022-10-31T05:53:05.511Z,9.90
2022-10-31T05:55:33.262Z,9.90
2022-10-31T05:58:00.677Z,9.90
2022-10-31T06:00:28.583Z,9.80
2022-10-31T06:03:03.331Z,9.80
2022-10-31T06:05:30.771Z,9.70
2022-10-31T06:07:58.625Z,9.70
2022-10-31T06:10:27.035Z,9.70
2022-10-31T06:12:53.870Z,9.60
2022-10-31T06:15:24.094Z,9.60
2022-10-31T06:18:05.546Z,9.60
2022-10-31T06:20:33.725Z,9.60
2022-10-31T06:23:00.753Z,9.70
2022-10-31T06:25:28.222Z,9.70
2022-10-31T06:27:55.425Z,9.80
2022-10-31T06:30:22.314Z,9.80
2022-10-31T06:32:50.384Z,9.80
2022-10-31T06:35:17.521Z,9.90
2022-10-31T06:37:46.786Z,9.90
2022-10-31T06:40:16.444Z,9.90
2022-10-31T06:42:43.192Z,10.00
2022-10-31T06:45:10.012Z,10.10
2022-10-31T06:47:50.833Z,10.10
2022-10-31T06:50:24.193Z,10.20
2022-10-31T06:52:55.754Z,10.30
2022-10-31T06:55:23.662Z,10.30
2022-10-31T06:57:52.091Z,10.40
2022-10-31T07:00:19.265Z,10.40
2022-10-31T07:02:56.784Z,10.50
2022-10-31T07:05:23.784Z,10.50
2022-10-31T07:07:55.711Z,10.60
2022-10-31T07:10:23.279Z,10.60
2022-10-31T07:12:54.498Z,10.80
2022-10-31T07:15:21.310Z,10.90
2022-10-31T07:17:48.008Z,11.20
2022-10-31T07:20:14.837Z,11.40
2022-10-31T07:22:41.570Z,11.70
2022-10-31T07:25:08.690Z,12.00
2022-10-31T07:27:42.594Z,12.30
2022-10-31T07:30:12.070Z,12.60
2022-10-31T07:32:43.584Z,13.00
2022-10-31T07:35:13.126Z,13.30
2022-10-31T07:37:40.134Z,13.50
2022-10-31T07:40:09.076Z,13.80
2022-10-31T07:42:43.965Z,14.00
2022-10-31T07:45:12.992Z,14.20
2022-10-31T07:47:44.823Z,14.30
2022-10-31T07:50:15.009Z,14.50
2022-10-31T07:52:41.783Z,14.50
2022-10-31T07:55:09.639Z,14.70
2022-10-31T07:57:37.856Z,14.90
2022-10-31T08:00:09.564Z,15.00
2022-10-31T08:02:36.917Z,15.10
2022-10-31T08:05:03.838Z,15.20
2022-10-31T08:07:30.751Z,15.20
2022-10-31T08:09:57.603Z,15.10
2022-10-31T08:12:24.507Z,15.20
2022-10-31T08:14:51.351Z,15.10
2022-10-31T08:17:18.059Z,15.20
2022-10-31T08:19:44.768Z,15.20
2022-10-31T08:22:11.478Z,15.40
2022-10-31T08:27:06.061Z,15.60
2022-10-31T08:29:32.750Z,15.50
2022-10-31T08:31:59.942Z,15.50
2022-10-31T08:34:27.064Z,15.40
2022-10-31T08:36:53.825Z,15.50
2022-10-31T08:39:20.579Z,15.60
2022-10-31T08:41:47.292Z,15.40
2022-10-31T08:44:14.226Z,15.50
2022-10-31T08:46:40.959Z,15.70
2022-10-31T08:49:07.747Z,15.70
2022-10-31T08:51:34.537Z,15.80
2022-10-31T08:54:01.390Z,15.70
2022-10-31T08:56:28.158Z,15.60
2022-10-31T08:58:55.037Z,15.70
2022-10-31T09:01:21.879Z,15.80
2022-10-31T09:03:48.706Z,16.00
2022-10-31T09:06:15.683Z,16.10
2022-10-31T09:08:42.521Z,16.10
2022-10-31T09:11:09.305Z,16.10
2022-10-31T09:13:40.991Z,16.20
2022-10-31T09:16:08.502Z,16.30
2022-10-31T09:18:35.333Z,16.40
2022-10-31T09:21:02.246Z,16.40
2022-10-31T09:23:29.330Z,16.40
2022-10-31T09:25:56.786Z,16.50
2022-10-31T09:28:27.622Z,16.70
2022-10-31T09:30:55.660Z,16.80
2022-10-31T09:33:22.800Z,16.70
2022-10-31T09:35:49.936Z,16.90
2022-10-31T09:38:24.357Z,17.10
2022-10-31T09:41:29.655Z,17.40
2022-10-31T09:44:19.648Z,17.60
2022-10-31T09:47:11.340Z,17.70
2022-10-31T09:50:07.023Z,17.90
2022-10-31T09:52:36.678Z,18.00
2022-10-31T09:55:13.118Z,18.20
2022-10-31T09:57:42.237Z,18.30
2022-10-31T10:00:17.092Z,18.40
2022-10-31T10:03:05.894Z,18.40
2022-10-31T10:05:40.410Z,18.60
2022-10-31T10:08:27.548Z,18.60
2022-10-31T10:11:15.571Z,18.40
2022-10-31T10:14:23.742Z,18.10
2022-10-31T10:17:09.181Z,18.20
2022-10-31T10:19:57.735Z,18.40
2022-10-31T10:22:35.211Z,18.40
2022-10-31T10:25:13.900Z,18.50
2022-10-31T10:28:24.334Z,18.60
2022-10-31T10:31:08.820Z,18.20
2022-10-31T10:33:41.245Z,18.10
2022-10-31T10:36:15.401Z,18.20
2022-10-31T10:38:56.230Z,18.30
2022-10-31T10:41:24.859Z,18.20
2022-10-31T10:43:52.727Z,18.20
2022-10-31T10:46:44.888Z,18.20
2022-10-31T10:49:30.649Z,18.40
2022-10-31T10:52:40.392Z,18.60
2022-10-31T10:55:25.721Z,18.60
2022-10-31T10:58:05.635Z,18.60
2022-10-31T11:00:43.572Z,18.40
2022-10-31T11:03:11.683Z,18.30
2022-10-31T11:05:59.871Z,18.40
2022-10-31T11:08:31.671Z,18.40
2022-10-31T11:11:18.619Z,18.10
2022-10-31T11:13:48.205Z,18.00
2022-10-31T11:16:29.443Z,17.90
2022-10-31T11:19:27.413Z,17.90
2022-10-31T11:21:54.833Z,17.90
2022-10-31T11:24:24.258Z,17.90
2022-10-31T11:26:52.303Z,18.00
2022-10-31T11:29:25.857Z,18.10
2022-10-31T11:31:54.619Z,18.10
2022-10-31T11:34:34.145Z,17.90
2022-10-31T11:37:17.178Z,18.00
2022-10-31T11:39:54.781Z,18.10
2022-10-31T11:42:28.351Z,18.20
2022-10-31T11:44:56.619Z,18.30
2022-10-31T11:47:33.657Z,18.30
2022-10-31T11:50:09.349Z,18.30
2022-10-31T11:52:41.186Z,18.20
2022-10-31T11:55:14.004Z,18.30
2022-10-31T11:57:49.388Z,18.40
2022-10-31T12:00:34.198Z,18.40
2022-10-31T12:03:38.026Z,18.10
2022-10-31T12:06:35.416Z,18.00
2022-10-31T12:09:02.168Z,18.10
2022-10-31T12:11:44.513Z,18.00
2022-10-31T12:14:33.047Z,18.00
2022-10-31T12:17:08.121Z,18.10
2022-10-31T12:20:01.368Z,18.20
2022-10-31T12:22:40.955Z,17.90
2022-10-31T12:25:32.607Z,17.70
2022-10-31T12:28:23.908Z,17.90
2022-10-31T12:31:08.658Z,18.00
2022-10-31T12:33:53.542Z,18.10
2022-10-31T12:36:20.213Z,17.90
2022-10-31T12:39:03.299Z,17.80
2022-10-31T12:41:40.329Z,17.80
2022-10-31T12:44:20.388Z,17.80
2022-10-31T12:47:08.633Z,17.80
2022-10-31T12:49:48.624Z,17.70
2022-10-31T12:52:18.318Z,17.70
2022-10-31T12:55:15.166Z,17.80
2022-10-31T12:57:51.935Z,17.80
2022-10-31T13:00:20.812Z,17.70
2022-10-31T13:02:55.878Z,17.70
2022-10-31T13:05:37.035Z,17.80
2022-10-31T13:08:17.373Z,17.80
2022-10-31T13:10:52.121Z,17.80
2022-10-31T13:13:39.414Z,17.70
2022-10-31T13:16:18.465Z,17.70
2022-10-31T13:19:00.747Z,17.80
2022-10-31T13:21:42.397Z,17.70
2022-10-31T13:24:19.378Z,17.60
2022-10-31T13:26:58.725Z,17.60
2022-10-31T13:29:43.652Z,17.50
2022-10-31T13:32:11.433Z,17.50
2022-10-31T13:34:43.380Z,17.50
2022-10-31T13:37:22.532Z,17.50
2022-10-31T13:40:21.284Z,17.60
2022-10-31T13:42:54.869Z,17.70
2022-10-31T13:45:24.564Z,17.70
2022-10-31T13:48:20.446Z,17.90
2022-10-31T13:51:03.142Z,17.90
2022-10-31T13:53:58.481Z,18.00
2022-10-31T13:56:35.510Z,18.00
2022-10-31T13:59:11.167Z,17.90
2022-10-31T14:01:46.797Z,17.80
2022-10-31T14:04:25.523Z,17.70
2022-10-31T14:07:00.372Z,17.60
2022-10-31T14:09:34.777Z,17.50
2022-10-31T14:12:06.454Z,17.50
2022-10-31T14:14:45.465Z,17.50
2022-10-31T14:17:21.117Z,17.60
2022-10-31T14:20:17.451Z,17.40
2022-10-31T14:22:44.292Z,17.20
2022-10-31T14:25:31.523Z,17.10
2022-10-31T14:28:00.608Z,17.20
2022-10-31T14:30:29.427Z,17.10
2022-10-31T14:33:13.069Z,17.10
2022-10-31T14:36:07.688Z,17.00
2022-10-31T14:39:11.903Z,17.00
2022-10-31T14:41:53.039Z,17.00
2022-10-31T14:45:00.669Z,16.90
2022-10-31T14:47:40.422Z,16.90
2022-10-31T14:50:45.601Z,16.80
2022-10-31T14:53:23.544Z,16.90
2022-10-31T14:55:53.379Z,16.80
2022-10-31T14:58:25.241Z,16.70
2022-10-31T15:00:56.866Z,16.70
2022-10-31T15:03:39.487Z,16.70
2022-10-31T15:06:16.692Z,16.70
2022-10-31T15:08:50.193Z,16.60
2022-10-31T15:11:22.790Z,16.50
2022-10-31T15:13:54.770Z,16.40
2022-10-31T15:19:06.800Z,16.30
2022-10-31T15:21:35.509Z,16.30
2022-10-31T15:24:03.555Z,16.30
2022-10-31T15:26:38.852Z,16.30
2022-10-31T15:29:12.156Z,16.30
2022-10-31T15:31:38.895Z,16.20
2022-10-31T15:34:20.214Z,16.20
2022-10-31T15:36:50.982Z,16.10
2022-10-31T15:39:18.323Z,16.10
2022-10-31T15:41:54.442Z,16.10
2022-10-31T15:44:37.163Z,16.10
2022-10-31T15:47:16.908Z,16.00
2022-10-31T15:49:53.914Z,16.00
2022-10-31T15:52:29.828Z,15.80
2022-10-31T15:55:01.210Z,15.80
2022-10-31T15:57:28.484Z,15.70
2022-10-31T15:59:56.066Z,15.70
2022-10-31T16:02:25.473Z,15.70
2022-10-31T16:04:58.526Z,15.70
2022-10-31T16:07:26.008Z,15.70
2022-10-31T16:10:04.560Z,15.70
2022-10-31T16:12:37.277Z,15.60
2022-10-31T16:15:06.104Z,15.60
2022-10-31T16:17:33.346Z,15.50
2022-10-31T16:20:06.242Z,15.40
2022-10-31T16:22:38.432Z,15.40
2022-10-31T16:25:15.083Z,15.10
2022-10-31T16:27:54.039Z,15.00
2022-10-31T16:30:48.001Z,15.00
2022-10-31T16:33:37.736Z,14.80
2022-10-31T16:36:36.619Z,14.80
2022-10-31T16:39:04.285Z,14.70
2022-10-31T16:41:39.512Z,14.70
2022-10-31T16:44:14.116Z,14.60
2022-10-31T16:46:40.894Z,14.60
2022-10-31T16:49:10.238Z,14.60
2022-10-31T16:51:37.133Z,14.50
2022-10-31T16:54:03.946Z,14.30
2022-10-31T16:56:33.542Z,14.20
2022-10-31T16:59:03.741Z,14.10
2022-10-31T17:01:31.552Z,14.10
2022-10-31T17:03:58.578Z,14.10
2022-10-31T17:06:28.482Z,13.90
2022-10-31T17:08:55.652Z,13.80
2022-10-31T17:11:27.065Z,13.80
2022-10-31T17:13:55.445Z,13.80
2022-10-31T17:16:22.205Z,13.80
2022-10-31T17:18:49.023Z,13.70
2022-10-31T17:21:23.639Z,13.70
2022-10-31T17:23:51.797Z,13.80
2022-10-31T17:26:19.627Z,13.70
2022-10-31T17:28:46.654Z,13.70
2022-10-31T17:31:27.523Z,13.70
2022-10-31T17:34:02.198Z,13.60
2022-10-31T17:36:30.444Z,13.50
2022-10-31T17:38:57.217Z,13.50
2022-10-31T17:41:23.901Z,13.50
2022-10-31T17:44:01.283Z,13.50
2022-10-31T17:46:28.841Z,13.50
2022-10-31T17:48:55.655Z,13.50
2022-10-31T17:51:22.468Z,13.40
2022-10-31T17:53:49.233Z,13.40
2022-10-31T17:56:16.003Z,13.40
2022-10-31T17:58:43.003Z,13.40
2022-10-31T18:01:15.593Z,13.40
2022-10-31T18:03:42.442Z,13.20
2022-10-31T18:06:10.722Z,13.20
2022-10-31T18:08:39.924Z,13.10
2022-10-31T18:11:12.144Z,13.10
2022-10-31T18:13:39.301Z,13.00
2022-10-31T18:16:15.356Z,13.00
2022-10-31T18:18:42.050Z,13.00
2022-10-31T18:21:08.979Z,13.00
2022-10-31T18:23:35.754Z,13.00
2022-10-31T18:26:02.786Z,13.00
2022-10-31T18:28:29.630Z,12.90
2022-10-31T18:31:00.482Z,12.90
2022-10-31T18:33:27.650Z,12.90
2022-10-31T18:35:54.704Z,12.80
2022-10-31T18:38:21.709Z,12.80
2022-10-31T18:40:48.454Z,12.80
2022-10-31T18:43:15.217Z,12.80
2022-10-31T18:45:46.972Z,12.80
2022-10-31T18:48:15.903Z,12.60
2022-10-31T18:50:43.439Z,12.50
2022-10-31T18:53:10.701Z,12.50
2022-10-31T18:55:45.387Z,12.50
2022-10-31T18:58:16.520Z,12.40
2022-10-31T19:00:43.404Z,12.40
2022-10-31T19:03:10.375Z,12.30
2022-10-31T19:05:37.212Z,12.40
2022-10-31T19:08:04.433Z,12.40
2022-10-31T19:10:31.281Z,12.30
2022-10-31T19:12:58.251Z,12.30
2022-10-31T19:15:26.068Z,12.20
2022-10-31T19:17:52.884Z,12.10
2022-10-31T19:20:19.605Z,12.10
2022-10-31T19:22:46.410Z,12.10
2022-10-31T19:25:13.160Z,12.10
2022-10-31T19:27:40.162Z,12.10
2022-10-31T19:30:07.731Z,12.10
2022-10-31T19:32:34.875Z,12.10
2022-10-31T19:35:01.683Z,12.10
2022-10-31T19:37:28.731Z,12.00
2022-10-31T19:39:55.487Z,12.00
2022-10-31T19:42:22.262Z,12.10
2022-10-31T19:44:48.988Z,12.00
2022-10-31T19:47:15.898Z,12.00
2022-10-31T19:49:42.759Z,12.00
2022-10-31T19:52:09.528Z,12.10
2022-10-31T19:54:36.203Z,12.10
2022-10-31T19:57:02.939Z,12.10
2022-10-31T19:59:29.591Z,12.10
2022-10-31T20:01:56.386Z,12.20
2022-10-31T20:04:23.158Z,12.10
2022-10-31T20:06:50.070Z,12.10
2022-10-31T20:09:17.057Z,12.00
2022-10-31T20:11:45.568Z,12.00
2022-10-31T20:14:17.625Z,11.90
2022-10-31T20:16:45.357Z,11.90
2022-10-31T20:19:12.110Z,11.70
2022-10-31T20:21:40.961Z,11.60
2022-10-31T20:24:09.681Z,11.70
2022-10-31T20:26:38.155Z,11.60
2022-10-31T20:29:05.189Z,11.60
2022-10-31T20:31:34.703Z,11.60
2022-10-31T20:34:01.870Z,11.50
2022-10-31T20:36:31.423Z,11.50
2022-10-31T20:38:58.812Z,11.50
2022-10-31T20:41:25.947Z,11.50
2022-10-31T20:43:52.823Z,11.40
2022-10-31T20:46:23.427Z,11.50
2022-10-31T20:48:50.513Z,11.40
2022-10-31T20:51:22.714Z,11.40
2022-10-31T20:53:53.397Z,11.30
2022-10-31T20:56:22.262Z,11.40
2022-10-31T20:58:49.850Z,11.30
2022-10-31T21:01:19.523Z,11.20
2022-10-31T21:03:47.119Z,11.20
2022-10-31T21:06:14.873Z,11.00
2022-10-31T21:08:43.030Z,11.00
2022-10-31T21:11:12.200Z,11.00
2022-10-31T21:13:41.390Z,10.90
2022-10-31T21:16:13.722Z,10.80
2022-10-31T21:18:42.322Z,10.90
2022-10-31T21:21:18.555Z,10.80
2022-10-31T21:23:46.138Z,10.80
2022-10-31T21:26:23.706Z,10.80
2022-10-31T21:28:52.818Z,10.90
2022-10-31T21:31:19.786Z,10.90
2022-10-31T21:33:47.345Z,11.00
2022-10-31T21:36:14.844Z,11.10
2022-10-31T21:38:41.893Z,11.20
2022-10-31T21:41:13.918Z,11.20
2022-10-31T21:43:42.963Z,11.20
2022-10-31T21:46:19.069Z,11.20
2022-10-31T21:48:46.496Z,11.20
2022-10-31T21:51:15.614Z,11.10
2022-10-31T21:54:01.233Z,11.10
2022-10-31T21:56:28.424Z,11.20
2022-10-31T21:58:55.595Z,11.20
2022-10-31T22:01:29.622Z,11.20
2022-10-31T22:03:57.187Z,11.20
2022-10-31T22:06:26.669Z,11.30
2022-10-31T22:08:54.673Z,11.20
2022-10-31T22:11:21.724Z,11.20
2022-10-31T22:13:49.993Z,11.20
2022-10-31T22:16:21.653Z,11.20
2022-10-31T22:18:53.220Z,11.20
2022-10-31T22:21:23.772Z,11.30
2022-10-31T22:24:01.900Z,11.30
2022-10-31T22:26:32.461Z,11.30
2022-10-31T22:29:02.359Z,11.20
2022-10-31T22:31:31.055Z,11.20
2022-10-31T22:33:58.525Z,11.20
2022-10-31T22:36:28.150Z,11.20
2022-10-31T22:38:55.034Z,11.10
2022-10-31T22:41:24.265Z,11.10
2022-10-31T22:43:51.128Z,11.20
2022-10-31T22:46:20.402Z,11.10
2022-10-31T22:48:53.690Z,11.20
2022-10-31T22:51:26.033Z,11.30
2022-10-31T22:53:53.265Z,11.30
2022-10-31T22:56:22.199Z,11.20
2022-10-31T22:58:49.582Z,11.30
2022-10-31T23:01:19.020Z,11.20
2022-10-31T23:03:46.598Z,11.30
2022-10-31T23:06:20.250Z,11.30
2022-10-31T23:08:48.133Z,11.40
2022-10-31T23:11:17.826Z,11.40
2022-10-31T23:14:07.412Z,11.40
2022-10-31T23:16:35.271Z,11.40
2022-10-31T23:19:07.637Z,11.30
2022-10-31T23:21:56.332Z,11.30
2022-10-31T23:24:28.028Z,11.20
2022-10-31T23:27:09.220Z,11.20
2022-10-31T23:29:35.980Z,11.20
2022-10-31T23:32:03.774Z,11.20
2022-10-31T23:34:30.659Z,11.20
2022-10-31T23:36:57.576Z,11.30
2022-10-31T23:39:25.237Z,11.30
2022-10-31T23:41:52.334Z,11.30
2022-10-31T23:44:19.132Z,11.30
2022-10-31T23:46:46.025Z,11.20
2022-10-31T23:49:12.866Z,11.10
2022-10-31T23:51:40.059Z,11.10
2022-10-31T23:54:06.942Z,11.10
2022-10-31T23:56:33.887Z,11.10
2022-10-31T23:59:00.810Z,11.10
